createdAt,value
2022-11-29T00:02:43.262Z,5.06
2022-11-29T00:05:45.855Z,5.03
2022-11-29T00:08:47.826Z,5.04
2022-11-29T00:12:09.226Z,5.06
2022-11-29T00:15:10.957Z,5.05
2022-11-29T00:18:12.480Z,5.06
2022-11-29T00:21:13.936Z,5.09
2022-11-29T00:24:15.527Z,5.10
2022-11-29T00:27:18.389Z,5.07
2022-11-29T00:30:20.309Z,5.08
2022-11-29T00:33:21.961Z,5.07
2022-11-29T00:36:24.363Z,5.08
2022-11-29T00:39:28.513Z,5.08
2022-11-29T00:42:31.413Z,5.03
2022-11-29T00:45:32.854Z,5.01
2022-11-29T00:48:34.446Z,5.03
2022-11-29T00:51:36.080Z,5.09
2022-11-29T00:54:37.772Z,5.10
2022-11-29T00:57:40.824Z,5.09
2022-11-29T01:00:42.530Z,5.08
2022-11-29T01:03:44.386Z,5.09
2022-11-29T01:06:46.031Z,5.10
2022-11-29T01:09:47.549Z,5.09
2022-11-29T01:12:50.373Z,5.06
2022-11-29T01:15:55.028Z,5.05
2022-11-29T01:18:56.499Z,5.05
2022-11-29T01:21:57.935Z,5.07
2022-11-29T01:24:59.376Z,5.05
2022-11-29T01:28:02.238Z,5.04
2022-11-29T01:31:07.461Z,5.07
2022-11-29T01:34:12.480Z,5.08
2022-11-29T01:37:14.041Z,5.06
2022-11-29T01:40:15.660Z,5.07
2022-11-29T01:43:18.753Z,5.15
2022-11-29T01:46:20.364Z,5.16
2022-11-29T01:49:24.014Z,5.16
2022-11-29T01:52:28.069Z,5.14
2022-11-29T01:55:29.576Z,5.12
2022-11-29T01:58:33.288Z,5.06
2022-11-29T02:01:35.225Z,5.04
2022-11-29T02:04:37.934Z,5.02
2022-11-29T02:07:40.162Z,5.01
2022-11-29T02:10:49.634Z,4.99
2022-11-29T02:13:57.764Z,4.97
2022-11-29T02:17:01.844Z,4.97
2022-11-29T02:20:16.013Z,4.98
2022-11-29T02:23:32.222Z,4.97
2022-11-29T02:26:55.191Z,4.97
2022-11-29T02:30:06.747Z,4.99
2022-11-29T02:33:17.632Z,5.00
2022-11-29T02:36:37.123Z,5.02
2022-11-29T02:39:49.441Z,5.01
2022-11-29T02:43:04.039Z,4.99
2022-11-29T02:46:11.770Z,4.97
2022-11-29T02:49:22.454Z,5.00
2022-11-29T02:52:29.760Z,5.02
2022-11-29T02:55:34.811Z,5.05
2022-11-29T02:58:38.618Z,5.05
2022-11-29T03:01:45.078Z,5.06
2022-11-29T03:04:50.389Z,5.07
2022-11-29T03:07:56.127Z,5.09
2022-11-29T03:11:02.276Z,5.07
2022-11-29T03:14:13.169Z,5.04
2022-11-29T03:17:20.286Z,5.06
2022-11-29T03:20:29.031Z,5.03
2022-11-29T03:23:33.487Z,5.00
2022-11-29T03:26:39.052Z,4.99
2022-11-29T03:29:43.508Z,5.03
2022-11-29T03:32:47.899Z,5.04
2022-11-29T03:35:56.908Z,5.08
2022-11-29T03:39:00.959Z,5.06
2022-11-29T03:42:03.413Z,5.04
2022-11-29T03:45:08.186Z,5.01
2022-11-29T03:48:11.911Z,5.00
2022-11-29T03:51:18.782Z,4.95
2022-11-29T03:54:22.492Z,4.94
2022-11-29T03:57:28.208Z,4.89
2022-11-29T04:00:35.755Z,4.85
2022-11-29T04:03:55.105Z,4.82
2022-11-29T04:07:05.268Z,4.83
2022-11-29T04:10:14.879Z,4.88
2022-11-29T04:13:30.501Z,4.86
2022-11-29T04:16:46.124Z,4.87
2022-11-29T04:20:02.542Z,4.86
2022-11-29T04:23:22.651Z,4.85
2022-11-29T04:26:42.029Z,4.86
2022-11-29T04:29:55.687Z,4.86
2022-11-29T04:33:16.651Z,4.85
2022-11-29T04:36:38.668Z,4.86
2022-11-29T04:39:48.025Z,4.86
2022-11-29T04:42:55.135Z,4.87
2022-11-29T04:46:14.164Z,4.87
2022-11-29T04:49:36.779Z,4.86
2022-11-29T04:52:59.493Z,4.85
2022-11-29T04:56:08.083Z,4.83
2022-11-29T04:59:14.645Z,4.88
2022-11-29T05:02:24.494Z,4.86
2022-11-29T05:05:33.099Z,4.85
2022-11-29T05:08:45.302Z,4.83
2022-11-29T05:11:57.180Z,4.84
2022-11-29T05:15:14.530Z,4.82
2022-11-29T05:18:22.236Z,4.85
2022-11-29T05:21:29.702Z,4.87
2022-11-29T05:24:39.711Z,4.84
2022-11-29T05:27:45.385Z,4.84
2022-11-29T05:31:01.856Z,4.84
2022-11-29T05:34:19.072Z,4.78
2022-11-29T05:37:27.915Z,4.79
2022-11-29T05:40:53.414Z,4.78
2022-11-29T05:43:59.894Z,4.77
2022-11-29T05:47:03.941Z,4.82
2022-11-29T05:50:11.431Z,4.85
2022-11-29T05:53:17.505Z,4.86
2022-11-29T05:56:26.087Z,4.88
2022-11-29T05:59:28.441Z,4.97
2022-11-29T06:02:39.653Z,5.03
2022-11-29T06:05:47.780Z,5.01
2022-11-29T06:08:54.840Z,5.04
2022-11-29T06:12:02.562Z,5.04
2022-11-29T06:15:16.472Z,5.04
2022-11-29T06:18:26.048Z,5.03
2022-11-29T06:21:36.795Z,5.01
2022-11-29T06:24:45.477Z,5.03
2022-11-29T06:27:57.634Z,4.99
2022-11-29T06:31:02.993Z,4.94
2022-11-29T06:34:09.307Z,4.94
2022-11-29T06:37:15.508Z,4.95
2022-11-29T06:40:19.559Z,4.99
2022-11-29T06:43:21.392Z,5.02
2022-11-29T06:46:27.039Z,5.03
2022-11-29T06:49:30.716Z,5.06
2022-11-29T06:52:37.723Z,5.08
2022-11-29T06:55:42.820Z,5.09
2022-11-29T06:58:51.496Z,5.10
2022-11-29T07:01:56.218Z,5.06
2022-11-29T07:05:03.111Z,5.02
2022-11-29T07:08:10.718Z,5.00
2022-11-29T07:11:13.468Z,5.02
2022-11-29T07:14:15.321Z,5.00
2022-11-29T07:17:22.234Z,5.03
2022-11-29T07:20:28.562Z,5.04
2022-11-29T07:23:34.685Z,5.03
2022-11-29T07:26:39.064Z,5.07
2022-11-29T07:29:42.849Z,5.10
2022-11-29T07:32:55.926Z,5.14
2022-11-29T07:36:06.975Z,5.21
2022-11-29T07:39:17.831Z,5.21
2022-11-29T07:42:23.502Z,5.19
2022-11-29T07:45:27.394Z,5.19
2022-11-29T07:48:28.848Z,5.19
2022-11-29T07:51:31.157Z,5.17
2022-11-29T07:54:34.229Z,5.20
2022-11-29T07:57:36.975Z,5.13
2022-11-29T08:00:38.685Z,5.09
2022-11-29T08:03:41.380Z,5.05
2022-11-29T08:06:43.119Z,5.03
2022-11-29T08:09:46.139Z,5.07
2022-11-29T08:12:48.801Z,5.03
2022-11-29T08:15:50.270Z,5.07
2022-11-29T08:18:54.310Z,5.11
2022-11-29T08:21:55.731Z,5.17
2022-11-29T08:24:59.925Z,5.15
2022-11-29T08:28:01.932Z,5.07
2022-11-29T08:31:04.418Z,5.08
2022-11-29T08:34:06.495Z,5.06
2022-11-29T08:37:07.995Z,5.07
2022-11-29T08:40:11.709Z,5.13
2022-11-29T08:43:13.218Z,5.10
2022-11-29T08:46:18.571Z,5.14
2022-11-29T08:49:20.148Z,5.20
2022-11-29T08:52:40.416Z,5.27
2022-11-29T08:55:46.762Z,5.32
2022-11-29T08:58:48.362Z,5.35
2022-11-29T09:01:49.849Z,5.39
2022-11-29T09:04:51.375Z,5.40
2022-11-29T09:07:52.973Z,5.35
2022-11-29T09:10:55.932Z,5.37
2022-11-29T09:13:58.947Z,5.39
2022-11-29T09:17:00.480Z,5.45
2022-11-29T09:20:05.034Z,5.40
2022-11-29T09:23:06.441Z,5.40
2022-11-29T09:26:10.474Z,5.43
2022-11-29T09:29:12.247Z,5.46
2022-11-29T09:32:13.769Z,5.47
2022-11-29T09:35:15.250Z,5.50
2022-11-29T09:38:16.750Z,5.52
2022-11-29T09:41:30.491Z,5.50
2022-11-29T09:44:38.975Z,5.55
2022-11-29T09:47:57.892Z,5.56
2022-11-29T09:51:04.718Z,5.56
2022-11-29T09:54:15.269Z,5.57
2022-11-29T09:57:19.286Z,5.62
2022-11-29T10:00:21.358Z,5.63
2022-11-29T10:03:25.437Z,5.65
2022-11-29T10:06:28.226Z,5.67
2022-11-29T10:09:33.979Z,5.74
2022-11-29T10:12:39.906Z,5.74
2022-11-29T10:15:43.265Z,5.74
2022-11-29T10:18:48.430Z,5.74
2022-11-29T10:21:57.289Z,5.78
2022-11-29T10:25:02.410Z,5.80
2022-11-29T10:28:09.758Z,5.76
2022-11-29T10:31:16.320Z,5.75
2022-11-29T10:34:19.743Z,5.79
2022-11-29T10:37:21.652Z,5.86
2022-11-29T10:40:27.302Z,5.89
2022-11-29T10:43:30.433Z,5.88
2022-11-29T10:46:33.576Z,5.92
2022-11-29T10:49:37.395Z,5.94
2022-11-29T10:52:39.355Z,5.99
2022-11-29T10:55:43.351Z,5.90
2022-11-29T10:58:55.027Z,5.83
2022-11-29T11:01:57.220Z,5.81
2022-11-29T11:05:01.272Z,5.86
2022-11-29T11:08:05.465Z,5.88
2022-11-29T11:11:08.212Z,5.90
2022-11-29T11:14:19.464Z,5.94
2022-11-29T11:17:22.591Z,5.94
2022-11-29T11:20:25.908Z,5.96
2022-11-29T11:23:29.922Z,6.00
2022-11-29T11:26:41.807Z,6.02
2022-11-29T11:29:45.002Z,5.99
2022-11-29T11:33:01.330Z,6.01
2022-11-29T11:36:07.612Z,6.06
2022-11-29T11:39:10.727Z,6.05
2022-11-29T11:42:32.408Z,6.07
2022-11-29T11:45:36.717Z,6.09
2022-11-29T11:48:40.174Z,6.08
2022-11-29T11:51:42.375Z,6.12
2022-11-29T11:54:45.499Z,6.09
2022-11-29T11:57:47.606Z,6.13
2022-11-29T12:01:07.140Z,6.15
2022-11-29T12:04:12.597Z,6.14
2022-11-29T12:07:17.949Z,6.15
2022-11-29T12:10:22.483Z,6.18
2022-11-29T12:13:27.335Z,6.22
2022-11-29T12:16:33.165Z,6.18
2022-11-29T12:19:38.805Z,6.10
2022-11-29T12:22:48.062Z,6.07
2022-11-29T12:25:52.523Z,6.08
2022-11-29T12:28:54.145Z,6.11
2022-11-29T12:32:02.097Z,6.10
2022-11-29T12:35:18.812Z,6.14
2022-11-29T12:38:28.303Z,6.16
2022-11-29T12:41:35.086Z,6.16
2022-11-29T12:44:43.117Z,6.16
2022-11-29T12:47:52.165Z,6.19
2022-11-29T12:50:58.072Z,6.17
2022-11-29T12:54:10.672Z,6.18
2022-11-29T12:57:16.641Z,6.19
2022-11-29T13:00:19.780Z,6.17
2022-11-29T13:03:27.019Z,6.15
2022-11-29T13:06:33.556Z,6.16
2022-11-29T13:09:51.009Z,6.15
2022-11-29T13:12:53.647Z,6.15
2022-11-29T13:16:00.659Z,6.13
2022-11-29T13:19:09.194Z,6.15
2022-11-29T13:22:15.177Z,6.14
2022-11-29T13:25:19.056Z,6.14
2022-11-29T13:28:22.897Z,6.18
2022-11-29T13:31:25.591Z,6.17
2022-11-29T13:34:30.954Z,6.18
2022-11-29T13:37:37.766Z,6.17
2022-11-29T13:40:46.747Z,6.17
2022-11-29T13:43:53.912Z,6.18
2022-11-29T13:47:02.491Z,6.21
2022-11-29T13:50:06.471Z,6.23
2022-11-29T13:53:13.682Z,6.23
2022-11-29T13:56:25.087Z,6.24
2022-11-29T13:59:28.068Z,6.24
2022-11-29T14:02:31.418Z,6.22
2022-11-29T14:05:38.096Z,6.20
2022-11-29T14:09:17.329Z,6.21
2022-11-29T14:12:04.930Z,6.22
2022-11-29T14:15:18.864Z,6.24
2022-11-29T14:18:49.296Z,6.24
2022-11-29T14:22:09.396Z,6.21
2022-11-29T14:25:50.518Z,6.20
2022-11-29T14:28:48.980Z,6.20
2022-11-29T14:31:53.238Z,6.22
2022-11-29T14:34:58.093Z,6.24
2022-11-29T14:38:04.699Z,6.25
2022-11-29T14:41:14.092Z,6.21
2022-11-29T14:44:19.110Z,6.18
2022-11-29T14:47:25.339Z,6.18
2022-11-29T14:50:32.037Z,6.19
2022-11-29T14:53:35.664Z,6.20
2022-11-29T14:56:44.545Z,6.23
2022-11-29T14:59:50.695Z,6.24
2022-11-29T15:02:53.146Z,6.24
2022-11-29T15:05:56.746Z,6.23
2022-11-29T15:09:01.945Z,6.24
2022-11-29T15:12:08.330Z,6.25
2022-11-29T15:15:20.951Z,6.28
2022-11-29T15:18:30.097Z,6.28
2022-11-29T15:21:34.355Z,6.28
2022-11-29T15:24:49.535Z,6.27
2022-11-29T15:27:52.572Z,6.26
2022-11-29T15:31:03.303Z,6.26
2022-11-29T15:34:05.076Z,6.28
2022-11-29T15:37:06.689Z,6.26
2022-11-29T15:40:11.817Z,6.26
2022-11-29T15:43:15.375Z,6.23
2022-11-29T15:46:20.433Z,6.25
2022-11-29T15:49:24.001Z,6.23
2022-11-29T15:52:28.895Z,6.23
2022-11-29T15:55:30.642Z,6.25
2022-11-29T15:58:33.690Z,6.26
2022-11-29T16:01:38.807Z,6.26
2022-11-29T16:04:46.548Z,6.25
2022-11-29T16:07:50.306Z,6.24
2022-11-29T16:10:53.365Z,6.25
2022-11-29T16:14:00.819Z,6.24
2022-11-29T16:17:05.365Z,6.23
2022-11-29T16:20:23.562Z,6.28
2022-11-29T16:23:32.618Z,6.29
2022-11-29T16:26:36.326Z,6.30
2022-11-29T16:29:42.079Z,6.32
2022-11-29T16:32:54.385Z,6.34
2022-11-29T16:36:06.172Z,6.36
2022-11-29T16:39:16.960Z,6.38
2022-11-29T16:42:25.873Z,6.36
2022-11-29T16:45:32.574Z,6.34
2022-11-29T16:48:38.276Z,6.39
2022-11-29T16:51:45.783Z,6.44
2022-11-29T16:54:47.642Z,6.44
2022-11-29T16:57:49.539Z,6.44
2022-11-29T17:00:51.489Z,6.42
2022-11-29T17:03:55.836Z,6.43
2022-11-29T17:06:57.490Z,6.43
2022-11-29T17:09:59.473Z,6.44
2022-11-29T17:13:04.486Z,6.42
2022-11-29T17:16:11.742Z,6.43
2022-11-29T17:19:14.954Z,6.43
2022-11-29T17:22:16.642Z,6.43
2022-11-29T17:25:18.140Z,6.42
2022-11-29T17:28:19.642Z,6.42
2022-11-29T17:31:22.816Z,6.44
2022-11-29T17:34:25.925Z,6.44
2022-11-29T17:37:28.103Z,6.48
2022-11-29T17:40:29.671Z,6.48
2022-11-29T17:43:33.097Z,6.49
2022-11-29T17:46:35.382Z,6.46
2022-11-29T17:49:38.264Z,6.44
2022-11-29T17:52:40.851Z,6.46
2022-11-29T17:55:42.409Z,6.42
2022-11-29T17:58:43.922Z,6.43
2022-11-29T18:01:47.287Z,6.46
2022-11-29T18:04:50.392Z,6.42
2022-11-29T18:08:00.541Z,6.42
2022-11-29T18:11:02.752Z,6.42
2022-11-29T18:14:04.451Z,6.42
2022-11-29T18:17:06.062Z,6.39
2022-11-29T18:20:10.036Z,6.36
2022-11-29T18:23:11.699Z,6.36
2022-11-29T18:26:14.112Z,6.36
2022-11-29T18:29:15.646Z,6.36
2022-11-29T18:32:17.179Z,6.40
2022-11-29T18:35:20.122Z,6.43
2022-11-29T18:38:21.583Z,6.42
2022-11-29T18:41:23.840Z,6.42
2022-11-29T18:44:29.351Z,6.42
2022-11-29T18:47:33.006Z,6.44
2022-11-29T18:50:35.993Z,6.43
2022-11-29T18:53:38.886Z,6.43
2022-11-29T18:56:40.755Z,6.44
2022-11-29T18:59:42.290Z,6.44
2022-11-29T19:02:43.741Z,6.46
2022-11-29T19:05:51.561Z,6.49
2022-11-29T19:08:53.548Z,6.52
2022-11-29T19:11:55.040Z,6.53
2022-11-29T19:14:56.700Z,6.53
2022-11-29T19:17:58.255Z,6.52
2022-11-29T19:21:07.681Z,6.53
2022-11-29T19:24:14.032Z,6.51
2022-11-29T19:27:16.413Z,6.48
2022-11-29T19:30:18.071Z,6.50
2022-11-29T19:33:19.533Z,6.50
2022-11-29T19:36:23.822Z,6.50
2022-11-29T19:39:25.590Z,6.51
2022-11-29T19:42:27.030Z,6.52
2022-11-29T19:45:28.570Z,6.52
2022-11-29T19:48:30.119Z,6.52
2022-11-29T19:51:33.359Z,6.54
2022-11-29T19:54:34.995Z,6.55
2022-11-29T19:57:37.311Z,6.55
2022-11-29T20:00:38.822Z,6.54
2022-11-29T20:03:40.710Z,6.53
2022-11-29T20:06:44.460Z,6.52
2022-11-29T20:09:46.224Z,6.50
2022-11-29T20:12:48.049Z,6.49
2022-11-29T20:15:49.601Z,6.51
2022-11-29T20:18:51.739Z,6.49
2022-11-29T20:21:54.752Z,6.49
2022-11-29T20:24:56.328Z,6.47
2022-11-29T20:27:58.255Z,6.48
2022-11-29T20:31:04.703Z,6.49
2022-11-29T20:34:07.022Z,6.49
2022-11-29T20:37:21.116Z,6.46
2022-11-29T20:40:24.306Z,6.44
2022-11-29T20:43:32.982Z,6.44
2022-11-29T20:46:34.711Z,6.44
2022-11-29T20:49:36.446Z,6.47
2022-11-29T20:52:44.644Z,6.46
2022-11-29T20:55:48.359Z,6.47
2022-11-29T20:58:50.148Z,6.47
2022-11-29T21:01:51.779Z,6.47
2022-11-29T21:04:53.237Z,6.46
2022-11-29T21:07:56.374Z,6.46
2022-11-29T21:11:01.754Z,6.47
2022-11-29T21:14:04.661Z,6.51
2022-11-29T21:17:06.443Z,6.50
2022-11-29T21:20:08.787Z,6.51
2022-11-29T21:23:18.631Z,6.54
2022-11-29T21:26:23.176Z,6.55
2022-11-29T21:29:24.964Z,6.55
2022-11-29T21:32:27.394Z,6.56
2022-11-29T21:35:28.848Z,6.55
2022-11-29T21:38:32.068Z,6.55
2022-11-29T21:41:33.863Z,6.55
2022-11-29T21:44:35.338Z,6.55
2022-11-29T21:47:37.005Z,6.56
2022-11-29T21:50:38.780Z,6.56
2022-11-29T21:53:42.291Z,6.55
2022-11-29T21:56:47.046Z,6.54
2022-11-29T21:59:48.657Z,6.52
2022-11-29T22:02:50.313Z,6.46
2022-11-29T22:05:51.983Z,6.47
2022-11-29T22:08:54.911Z,6.43
2022-11-29T22:11:58.220Z,6.43
2022-11-29T22:14:59.708Z,6.43
2022-11-29T22:18:01.532Z,6.41
2022-11-29T22:21:04.006Z,6.38
2022-11-29T22:24:07.607Z,6.40
2022-11-29T22:27:09.077Z,6.42
2022-11-29T22:30:11.041Z,6.42
2022-11-29T22:33:13.615Z,6.44
2022-11-29T22:36:15.196Z,6.46
2022-11-29T22:39:18.238Z,6.45
2022-11-29T22:42:19.802Z,6.44
2022-11-29T22:45:21.302Z,6.43
2022-11-29T22:48:23.203Z,6.43
2022-11-29T22:51:26.138Z,6.40
2022-11-29T22:54:29.096Z,6.41
2022-11-29T22:57:30.565Z,6.40
2022-11-29T23:00:33.856Z,6.41
2022-11-29T23:03:35.758Z,6.41
2022-11-29T23:06:38.593Z,6.42
2022-11-29T23:09:41.534Z,6.40
2022-11-29T23:12:44.584Z,6.39
2022-11-29T23:15:46.141Z,6.43
2022-11-29T23:18:47.967Z,6.45
2022-11-29T23:21:49.596Z,6.45
2022-11-29T23:24:52.576Z,6.45
2022-11-29T23:27:54.509Z,6.42
2022-11-29T23:30:56.061Z,6.44
2022-11-29T23:33:57.600Z,6.44
2022-11-29T23:36:59.183Z,6.45
2022-11-29T23:40:02.093Z,6.44
2022-11-29T23:43:03.650Z,6.42
2022-11-29T23:46:05.686Z,6.41
2022-11-29T23:49:07.426Z,6.42
2022-11-29T23:52:08.930Z,6.43
2022-11-29T23:55:14.743Z,6.43
2022-11-29T23:58:16.327Z,6.45
